createdAt,value
2022-11-01T00:00:55.689Z,11.68
2022-11-01T00:04:18.454Z,9.18
2022-11-01T00:07:40.621Z,9.60
2022-11-01T00:11:05.253Z,9.23
2022-11-01T00:14:27.424Z,8.73
2022-11-01T00:17:49.564Z,8.73
2022-11-01T00:21:12.434Z,6.47
2022-11-01T00:24:34.581Z,11.85
2022-11-01T00:27:56.732Z,7.57
2022-11-01T00:31:20.599Z,8.68
2022-11-01T00:34:42.753Z,11.68
2022-11-01T00:38:06.176Z,11.43
2022-11-01T00:41:28.474Z,8.70
2022-11-01T00:44:50.610Z,7.97
2022-11-01T00:48:13.485Z,7.38
2022-11-01T00:51:35.658Z,9.52
2022-11-01T00:54:57.866Z,4.78
2022-11-01T00:58:20.076Z,6.30
2022-11-01T01:01:42.348Z,6.57
2022-11-01T01:05:04.964Z,8.32
2022-11-01T01:08:27.628Z,8.20
2022-11-01T01:11:49.862Z,7.45
2022-11-01T01:15:13.911Z,6.57
2022-11-01T01:18:36.413Z,6.22
2022-11-01T01:21:58.694Z,6.95
2022-11-01T01:25:21.487Z,6.95
2022-11-01T01:28:44.680Z,5.75
2022-11-01T01:32:14.337Z,6.57
2022-11-01T01:35:38.471Z,5.43
2022-11-01T01:39:00.615Z,7.20
2022-11-01T01:42:32.503Z,4.63
2022-11-01T01:45:54.794Z,8.98
2022-11-01T01:49:16.959Z,7.57
2022-11-01T01:53:20.430Z,14.80
2022-11-01T01:56:42.790Z,9.02
2022-11-01T02:00:05.908Z,8.60
2022-11-01T02:03:35.283Z,6.43
2022-11-01T02:06:58.652Z,6.32
2022-11-01T02:10:21.807Z,3.88
2022-11-01T02:13:44.031Z,6.63
2022-11-01T02:17:43.950Z,5.82
2022-11-01T02:21:21.042Z,6.13
2022-11-01T02:24:55.407Z,8.02
2022-11-01T02:28:22.171Z,6.35
2022-11-01T02:32:06.128Z,4.18
2022-11-01T02:35:40.346Z,8.70
2022-11-01T02:39:19.736Z,4.72
2022-11-01T02:42:46.518Z,5.05
2022-11-01T02:46:29.158Z,6.75
2022-11-01T02:49:55.881Z,4.68
2022-11-01T02:53:18.119Z,7.10
2022-11-01T02:56:40.758Z,3.80
2022-11-01T03:00:21.674Z,3.90
2022-11-01T03:03:46.869Z,5.10
2022-11-01T03:07:12.193Z,5.50
2022-11-01T03:10:44.236Z,5.18
2022-11-01T03:14:32.853Z,3.78
2022-11-01T03:18:26.931Z,9.25
2022-11-01T03:21:59.132Z,5.90
2022-11-01T03:25:40.515Z,3.10
2022-11-01T03:29:07.817Z,4.70
2022-11-01T03:32:42.664Z,4.90
2022-11-01T03:36:13.562Z,3.10
2022-11-01T03:39:43.575Z,3.88
2022-11-01T03:43:10.447Z,4.38
2022-11-01T03:46:32.652Z,6.80
2022-11-01T03:50:17.953Z,3.05
2022-11-01T03:53:40.079Z,4.38
2022-11-01T03:57:02.394Z,5.15
2022-11-01T04:00:30.210Z,3.25
2022-11-01T04:03:52.340Z,4.05
2022-11-01T04:07:14.477Z,5.95
2022-11-01T04:10:36.851Z,4.05
2022-11-01T04:14:19.283Z,7.13
2022-11-01T04:17:59.768Z,7.88
2022-11-01T04:21:25.435Z,3.65
2022-11-01T04:24:47.595Z,3.22
2022-11-01T04:28:09.733Z,4.30
2022-11-01T04:31:35.007Z,4.55
2022-11-01T04:34:57.199Z,4.72
2022-11-01T04:38:19.647Z,1.95
2022-11-01T04:41:41.775Z,6.25
2022-11-01T04:45:05.521Z,3.20
2022-11-01T04:48:27.748Z,4.28
2022-11-01T04:51:49.929Z,3.58
2022-11-01T04:55:12.307Z,4.40
2022-11-01T04:58:40.000Z,4.72
2022-11-01T05:02:05.485Z,4.68
2022-11-01T05:05:27.796Z,6.30
2022-11-01T05:08:49.948Z,3.80
2022-11-01T05:12:12.773Z,7.28
2022-11-01T05:15:40.115Z,3.20
2022-11-01T05:19:10.266Z,3.53
2022-11-01T05:22:32.391Z,5.22
2022-11-01T05:25:54.556Z,3.05
2022-11-01T05:29:24.827Z,3.65
2022-11-01T05:32:59.591Z,6.00
2022-11-01T05:36:21.753Z,4.85
2022-11-01T05:39:43.921Z,4.47
2022-11-01T05:43:06.257Z,3.85
2022-11-01T05:46:28.651Z,3.58
2022-11-01T05:49:50.780Z,2.90
2022-11-01T05:53:13.425Z,2.13
2022-11-01T05:56:35.594Z,5.47
2022-11-01T05:59:57.732Z,3.78
2022-11-01T06:03:19.902Z,5.65
2022-11-01T06:06:42.070Z,5.25
2022-11-01T06:10:05.410Z,2.75
2022-11-01T06:13:27.574Z,1.90
2022-11-01T06:16:49.743Z,5.93
2022-11-01T06:20:12.353Z,3.60
2022-11-01T06:23:34.591Z,11.15
2022-11-01T06:26:56.703Z,3.10
2022-11-01T06:30:19.106Z,2.03
2022-11-01T06:33:41.385Z,4.30
2022-11-01T06:37:03.540Z,6.35
2022-11-01T06:40:25.788Z,2.35
2022-11-01T06:43:51.119Z,4.32
2022-11-01T06:47:13.276Z,5.57
2022-11-01T06:50:35.491Z,5.35
2022-11-01T06:53:57.648Z,5.25
2022-11-01T06:57:19.812Z,4.82
2022-11-01T07:00:42.240Z,3.42
2022-11-01T07:04:05.013Z,3.88
2022-11-01T07:07:27.221Z,4.75
2022-11-01T07:10:51.210Z,3.35
2022-11-01T07:14:13.477Z,4.28
2022-11-01T07:17:35.629Z,5.60
2022-11-01T07:20:57.922Z,4.88
2022-11-01T07:24:20.131Z,5.72
2022-11-01T07:27:42.272Z,3.78
2022-11-01T07:31:06.302Z,2.47
2022-11-01T07:34:28.476Z,7.13
2022-11-01T07:37:50.719Z,6.82
2022-11-01T07:44:27.068Z,4.47
2022-11-01T07:47:49.429Z,11.25
2022-11-01T07:51:11.939Z,4.25
2022-11-01T07:54:34.076Z,3.28
2022-11-01T07:57:56.327Z,4.60
2022-11-01T08:01:18.613Z,7.15
2022-11-01T08:04:41.038Z,5.40
2022-11-01T08:08:04.421Z,10.13
2022-11-01T08:11:27.838Z,4.97
2022-11-01T08:14:50.186Z,3.83
2022-11-01T08:18:12.375Z,9.07
2022-11-01T08:21:34.620Z,5.75
2022-11-01T08:24:56.807Z,5.35
2022-11-01T08:28:20.499Z,5.75
2022-11-01T08:31:43.226Z,5.45
2022-11-01T08:35:06.099Z,6.90
2022-11-01T08:38:28.555Z,10.15
2022-11-01T08:41:51.137Z,3.45
2022-11-01T08:45:13.808Z,9.23
2022-11-01T08:48:36.028Z,6.05
2022-11-01T08:51:58.258Z,7.18
2022-11-01T08:55:21.473Z,3.85
2022-11-01T08:58:43.646Z,3.42
2022-11-01T09:02:06.366Z,3.05
2022-11-01T09:05:31.168Z,6.45
2022-11-01T09:08:53.561Z,5.78
2022-11-01T09:12:17.380Z,4.68
2022-11-01T09:15:41.659Z,7.07
2022-11-01T09:19:03.913Z,4.93
2022-11-01T09:22:26.478Z,5.57
2022-11-01T09:25:48.834Z,8.52
2022-11-01T09:29:11.843Z,5.18
2022-11-01T09:32:34.012Z,9.18
2022-11-01T09:35:59.594Z,10.60
2022-11-01T09:39:22.268Z,9.23
2022-11-01T09:42:45.656Z,8.45
2022-11-01T09:46:14.162Z,4.55
2022-11-01T09:49:40.693Z,9.77
2022-11-01T09:53:08.583Z,4.82
2022-11-01T09:56:40.742Z,5.55
2022-11-01T10:00:16.196Z,4.32
2022-11-01T10:07:29.508Z,4.10
2022-11-01T10:11:28.751Z,3.92
2022-11-01T10:15:01.881Z,17.02
2022-11-01T10:18:32.688Z,11.82
2022-11-01T10:22:03.022Z,6.13
2022-11-01T10:25:31.712Z,13.57
2022-11-01T10:29:12.650Z,8.00
2022-11-01T10:32:48.773Z,9.43
2022-11-01T10:36:22.888Z,6.97
2022-11-01T10:39:57.928Z,8.98
2022-11-01T10:43:25.335Z,6.30
2022-11-01T10:46:51.223Z,6.85
2022-11-01T10:50:21.063Z,6.07
2022-11-01T10:53:48.156Z,9.27
2022-11-01T10:57:19.720Z,7.88
2022-11-01T11:00:43.089Z,7.65
2022-11-01T11:04:07.712Z,4.72
2022-11-01T11:07:31.966Z,4.85
2022-11-01T11:10:57.571Z,8.63
2022-11-01T11:14:21.355Z,4.82
2022-11-01T11:17:46.067Z,7.25
2022-11-01T11:21:11.529Z,5.80
2022-11-01T11:24:37.002Z,5.20
2022-11-01T11:28:00.348Z,7.03
2022-11-01T11:31:31.260Z,5.82
2022-11-01T11:34:59.383Z,6.50
2022-11-01T11:38:40.949Z,5.38
2022-11-01T11:42:19.408Z,6.13
2022-11-01T11:45:41.737Z,20.65
2022-11-01T11:49:07.331Z,24.33
2022-11-01T11:52:38.959Z,48.63
2022-11-01T11:56:06.778Z,45.22
2022-11-01T11:59:30.703Z,42.42
2022-11-01T12:02:53.187Z,46.72
2022-11-01T12:06:29.808Z,45.50
2022-11-01T12:09:52.012Z,38.72
2022-11-01T12:13:26.361Z,36.30
2022-11-01T12:16:48.622Z,26.48
2022-11-01T12:20:15.403Z,28.58
2022-11-01T12:23:40.829Z,25.25
2022-11-01T12:27:11.363Z,30.15
2022-11-01T12:30:35.717Z,32.08
2022-11-01T12:34:14.418Z,24.58
2022-11-01T12:37:55.107Z,25.60
2022-11-01T12:41:37.342Z,20.92
2022-11-01T12:45:10.076Z,18.20
2022-11-01T12:48:37.322Z,20.60
2022-11-01T12:52:18.922Z,28.67
2022-11-01T12:55:42.648Z,21.15
2022-11-01T12:59:06.050Z,16.73
2022-11-01T13:03:06.822Z,14.90
2022-11-01T13:06:46.319Z,19.48
2022-11-01T13:10:38.266Z,17.30
2022-11-01T13:14:33.106Z,18.77
2022-11-01T13:18:12.670Z,17.60
2022-11-01T13:21:57.241Z,12.48
2022-11-01T13:25:28.111Z,11.25
2022-11-01T13:29:06.796Z,17.70
2022-11-01T13:32:40.283Z,8.30
2022-11-01T13:36:11.871Z,11.23
2022-11-01T13:40:07.372Z,13.27
2022-11-01T13:43:45.027Z,14.07
2022-11-01T13:47:25.663Z,11.93
2022-11-01T13:50:56.613Z,12.13
2022-11-01T13:54:39.426Z,20.42
2022-11-01T13:58:02.425Z,12.45
2022-11-01T14:01:32.503Z,11.55
2022-11-01T14:04:58.920Z,18.40
2022-11-01T14:08:28.717Z,9.77
2022-11-01T14:12:02.695Z,14.70
2022-11-01T14:15:29.487Z,11.27
2022-11-01T14:19:04.123Z,9.68
2022-11-01T14:22:34.299Z,15.90
2022-11-01T14:26:18.345Z,14.52
2022-11-01T14:29:41.542Z,8.20
2022-11-01T14:33:04.306Z,11.05
2022-11-01T14:36:29.985Z,5.70
2022-11-01T14:39:58.359Z,12.45
2022-11-01T14:43:26.452Z,7.85
2022-11-01T14:46:52.410Z,8.23
2022-11-01T14:50:28.545Z,8.13
2022-11-01T14:53:56.978Z,10.35
2022-11-01T14:57:37.025Z,8.75
2022-11-01T15:01:05.963Z,14.70
2022-11-01T15:04:31.507Z,8.50
2022-11-01T15:07:56.296Z,9.00
2022-11-01T15:11:19.304Z,13.00
2022-11-01T15:14:46.506Z,12.98
2022-11-01T15:18:18.932Z,14.45
2022-11-01T15:21:46.921Z,15.13
2022-11-01T15:25:20.477Z,14.70
2022-11-01T15:28:48.872Z,13.60
2022-11-01T15:32:30.328Z,15.68
2022-11-01T15:36:01.686Z,16.35
2022-11-01T15:39:28.902Z,12.48
2022-11-01T15:42:59.394Z,13.60
2022-11-01T15:46:25.283Z,13.00
2022-11-01T15:49:53.959Z,9.00
2022-11-01T15:53:21.675Z,7.93
2022-11-01T15:56:50.329Z,9.07
2022-11-01T16:00:18.046Z,12.90
2022-11-01T16:03:45.842Z,8.38
2022-11-01T16:07:12.449Z,7.72
2022-11-01T16:10:35.398Z,9.45
2022-11-01T16:14:03.228Z,8.93
2022-11-01T16:17:35.025Z,10.90
2022-11-01T16:21:06.291Z,14.52
2022-11-01T16:24:28.901Z,6.95
2022-11-01T16:28:02.421Z,9.10
2022-11-01T16:31:29.780Z,6.30
2022-11-01T16:34:52.168Z,7.85
2022-11-01T16:38:46.922Z,6.07
2022-11-01T16:42:10.532Z,8.90
2022-11-01T16:45:32.832Z,5.68
2022-11-01T16:49:01.084Z,13.48
2022-11-01T16:52:23.331Z,9.23
2022-11-01T16:55:45.681Z,6.90
2022-11-01T16:59:21.704Z,6.90
2022-11-01T17:02:44.165Z,6.68
2022-11-01T17:06:06.475Z,7.68
2022-11-01T17:09:30.653Z,7.10
2022-11-01T17:12:57.521Z,9.35
2022-11-01T17:16:27.392Z,11.68
2022-11-01T17:19:56.325Z,3.65
2022-11-01T17:23:23.419Z,7.57
2022-11-01T17:26:46.259Z,4.85
2022-11-01T17:30:09.545Z,4.75
2022-11-01T17:33:31.917Z,6.55
2022-11-01T17:36:54.863Z,3.65
2022-11-01T17:40:20.725Z,7.90
2022-11-01T17:43:43.303Z,4.57
2022-11-01T17:47:05.599Z,8.70
2022-11-01T17:50:27.919Z,6.07
2022-11-01T17:53:54.649Z,4.20
2022-11-01T17:57:16.878Z,6.20
2022-11-01T18:00:43.061Z,6.05
2022-11-01T18:04:06.120Z,5.45
2022-11-01T18:07:39.344Z,4.32
2022-11-01T18:11:19.140Z,5.55
2022-11-01T18:18:43.143Z,6.95
2022-11-01T18:22:25.672Z,9.32
2022-11-01T18:25:49.608Z,4.60
2022-11-01T18:29:23.613Z,3.70
2022-11-01T18:32:58.972Z,10.77
2022-11-01T18:40:19.136Z,3.50
2022-11-01T18:43:41.605Z,4.20
2022-11-01T18:47:22.050Z,7.72
2022-11-01T18:50:44.333Z,4.05
2022-11-01T18:54:09.338Z,6.53
2022-11-01T18:57:31.902Z,6.28
2022-11-01T19:01:19.533Z,12.32
2022-11-01T19:04:43.080Z,6.55
2022-11-01T19:08:35.606Z,5.20
2022-11-01T19:12:10.799Z,6.65
2022-11-01T19:15:33.182Z,7.13
2022-11-01T19:18:55.486Z,4.95
2022-11-01T19:22:31.564Z,8.25
2022-11-01T19:25:53.978Z,11.93
2022-11-01T19:29:22.410Z,12.90
2022-11-01T19:32:44.652Z,19.15
2022-11-01T19:36:18.692Z,8.38
2022-11-01T19:39:41.643Z,10.25
2022-11-01T19:43:16.005Z,8.90
2022-11-01T19:46:38.259Z,9.63
2022-11-01T19:50:00.916Z,9.57
2022-11-01T19:53:28.053Z,8.60
2022-11-01T19:56:50.287Z,6.00
2022-11-01T20:00:21.119Z,5.85
2022-11-01T20:03:48.101Z,8.52
2022-11-01T20:07:20.652Z,8.70
2022-11-01T20:10:42.848Z,14.07
2022-11-01T20:14:06.016Z,8.70
2022-11-01T20:17:28.458Z,6.90
2022-11-01T20:20:50.734Z,7.60
2022-11-01T20:24:13.778Z,5.95
2022-11-01T20:27:36.061Z,5.25
2022-11-01T20:30:59.043Z,6.38
2022-11-01T20:34:21.381Z,3.72
2022-11-01T20:37:43.581Z,5.75
2022-11-01T20:41:06.194Z,3.47
2022-11-01T20:44:28.373Z,6.43
2022-11-01T20:47:51.268Z,13.32
2022-11-01T20:51:13.784Z,9.93
2022-11-01T20:54:36.185Z,6.93
2022-11-01T20:57:58.437Z,4.20
2022-11-01T21:01:22.047Z,7.75
2022-11-01T21:04:44.520Z,5.85
2022-11-01T21:08:15.660Z,7.13
2022-11-01T21:11:44.373Z,14.60
2022-11-01T21:15:37.206Z,2.13
2022-11-01T21:19:02.811Z,5.50
2022-11-01T21:22:25.043Z,4.75
2022-11-01T21:25:59.125Z,5.50
2022-11-01T21:29:29.489Z,7.63
2022-11-01T21:32:51.749Z,2.92
2022-11-01T21:36:32.672Z,9.05
2022-11-01T21:40:04.249Z,3.63
2022-11-01T21:43:33.483Z,2.92
2022-11-01T21:47:09.300Z,5.18
2022-11-01T21:50:31.508Z,3.90
2022-11-01T21:53:53.786Z,6.63
2022-11-01T21:57:16.749Z,5.93
2022-11-01T22:00:39.020Z,4.35
2022-11-01T22:04:01.246Z,5.80
2022-11-01T22:07:23.519Z,5.20
2022-11-01T22:10:45.772Z,7.00
2022-11-01T22:14:08.449Z,4.35
2022-11-01T22:17:30.692Z,7.70
2022-11-01T22:20:53.036Z,6.55
2022-11-01T22:24:15.262Z,4.25
2022-11-01T22:27:37.524Z,5.95
2022-11-01T22:30:59.727Z,6.90
2022-11-01T22:34:22.461Z,6.40
2022-11-01T22:37:44.704Z,3.30
2022-11-01T22:41:27.135Z,4.28
2022-11-01T22:44:52.333Z,6.18
2022-11-01T22:48:17.663Z,3.80
2022-11-01T22:51:45.427Z,7.18
2022-11-01T22:55:10.752Z,6.20
2022-11-01T22:58:35.014Z,4.75
2022-11-01T23:02:05.922Z,5.40
2022-11-01T23:05:28.662Z,5.50
2022-11-01T23:08:50.946Z,3.83
2022-11-01T23:12:42.134Z,6.40
2022-11-01T23:16:27.560Z,7.35
2022-11-01T23:20:01.432Z,4.93
2022-11-01T23:23:24.373Z,7.38
2022-11-01T23:26:46.719Z,5.18
2022-11-01T23:30:09.480Z,5.07
2022-11-01T23:33:42.226Z,6.07
2022-11-01T23:37:12.720Z,5.03
2022-11-01T23:40:35.112Z,6.50
2022-11-01T23:44:04.616Z,3.63
2022-11-01T23:47:35.699Z,4.88
2022-11-01T23:50:58.577Z,8.43
2022-11-01T23:54:30.761Z,4.90
2022-11-01T23:57:59.895Z,6.55
